Nocc Oceanic — V7YQ4 — position and weather

sailwx.info

Track history (hours):
 
Tides and Currents Weather Stations Pressure Air Temp Water Temp Dewpoint Dewpoint Depression Visibility Wind Speed Wind Dir Waves Ship Positions

Nocc Oceanic

Last reported at 2018-Jun-18 00:58 UTC. Time now 2018-Jun-23 11:57 UTC.
Position N 32°46' W 120°31'.

Length 199 m; draft 8.5 m.

Type: Ship. MMSI: 538004709.

Date/timePositionNaut miles runAvg speedWind from/ knotsBaromVisibWave heightAir tempDewpointWater temp
2018-Jun-18 00:58N 32°46' W 120°31'1916.5
2018-Jun-17 23:51N 33°03' W 120°40'616.5
2018-Jun-17 23:30N 33°08' W 120°42'816.4
2018-Jun-17 23:00N 33°16' W 120°46'816.3
2018-Jun-17 22:31N 33°23' W 120°49'815.6
2018-Jun-17 22:01N 33°31' W 120°53'815.2
2018-Jun-17 21:31N 33°38' W 120°56'815.7
2018-Jun-17 21:01N 33°45' W 120°60'815.3
2018-Jun-17 20:31N 33°52' W 121°03'815.1
2018-Jun-17 20:00N 33°59' W 121°06'815.3
2018-Jun-17 19:30N 34°06' W 121°10'715.0
2018-Jun-17 19:00N 34°13' W 121°13'815.2
2018-Jun-17 18:31N 34°20' W 121°17'815.7
2018-Jun-17 18:01N 34°27' W 121°20'815.7
2018-Jun-17 17:31N 34°35' W 121°24'815.4
2018-Jun-17 17:00N 34°42' W 121°27'815.4
2018-Jun-17 16:30N 34°49' W 121°31'815.3
2018-Jun-17 16:00N 34°56' W 121°34'815.9
2018-Jun-17 15:30N 35°03' W 121°38'815.7
2018-Jun-17 15:01N 35°11' W 121°41'815.4
2018-Jun-17 14:30N 35°18' W 121°45'816.2
2018-Jun-17 13:59N 35°26' W 121°49'4615.8
2018-Jun-17 11:05N 36°08' W 122°10'114.9
2018-Jun-17 11:00N 36°10' W 122°10'5415.3
2018-Jun-17 07:30N 36°59' W 122°36'815.4
2018-Jun-17 07:00N 37°06' W 122°38'815.7
2018-Jun-17 06:30N 37°14' W 122°42'815.3
2018-Jun-17 06:00N 37°21' W 122°44'815.8
2018-Jun-17 05:31N 37°29' W 122°44'815.6
2018-Jun-17 05:01N 37°37' W 122°44'714.9
2018-Jun-17 04:31N 37°44' W 122°41'510.9
2018-Jun-17 04:00N 37°47' W 122°35'714.9
2018-Jun-17 03:30N 37°50' W 122°26'612.9
2018-Jun-17 03:00N 37°56' W 122°27'714.7
2018-Jun-17 02:30N 38°02' W 122°21'714.2
2018-Jun-17 02:00N 38°04' W 122°12'4 0.2
2018-Jun-16 06:06N 38°02' W 122°08'0 0.1
2018-Jun-16 06:00N 38°02' W 122°08'1 1.1
2018-Jun-16 05:30N 38°02' W 122°09'4 9.0
2018-Jun-16 05:00N 38°04' W 122°14'714.7
2018-Jun-16 04:30N 38°02' W 122°23'815.3
2018-Jun-16 04:00N 37°55' W 122°27'611.4
2018-Jun-16 03:30N 37°49' W 122°26'612.7
2018-Jun-16 03:00N 37°47' W 122°33'612.9
2018-Jun-16 02:30N 37°44' W 122°41'5 9.4
2018-Jun-16 02:00N 37°42' W 122°46'5 9.5
2018-Jun-16 01:30N 37°39' W 122°50'5 9.5
2018-Jun-16 01:00N 37°36' W 122°55'5 9.6
2018-Jun-16 00:30N 37°33' W 123°00'5 9.5
2018-Jun-16 00:00N 37°31' W 123°05'612.6
2018-Jun-15 23:30N 37°25' W 123°10'2 4.2
2018-Jun-15 23:00N 37°23' W 123°11'1 1.7
2018-Jun-15 22:29N 37°24' W 123°11'1 2.0
2018-Jun-15 21:58N 37°25' W 123°11'1 1.9
2018-Jun-15 21:25N 37°26' W 123°11'1 1.7
2018-Jun-15 21:00N 37°27' W 123°11'1 1.6
2018-Jun-15 20:30N 37°28' W 123°11'4 7.9
2018-Jun-15 20:00N 37°26' W 123°16'713.6
2018-Jun-15 19:30N 37°23' W 123°23'713.4
2018-Jun-15 19:00N 37°19' W 123°30'814.2
2018-Jun-15 18:25N 37°15' W 123°40'814.6
2018-Jun-15 17:53N 37°11' W 123°48'2113.9
2018-Jun-15 16:20N 37°01' W 124°12'1213.6
2018-Jun-15 15:26N 36°54' W 124°25'813.2
2018-Jun-15 14:50N 36°50' W 124°33'413.5
2018-Jun-15 14:30N 36°48' W 124°38'17113.3
2018-Jun-15 01:37N 35°25' W 127°42'214.7
2018-Jun-15 01:30N 35°24' W 127°44'2614.5
2018-Jun-14 23:44N 35°12' W 128°12'  
Track history (hours):
 
Tides and Currents Weather Stations Pressure Air Temp Water Temp Dewpoint Dewpoint Depression Visibility Wind Speed Wind Dir Waves Ship Positions

Nocc Oceanic

Last reported at 2018-Jun-18 00:58 UTC. Time now 2018-Jun-23 11:57 UTC.
Position N 32°46' W 120°31'.

Length 199 m; draft 8.5 m.

Type: Ship. MMSI: 538004709.

Date/timePositionNaut miles runAvg speedWind from/ knotsBaromVisibWave heightAir tempDewpointWater temp
2018-Jun-18 00:58N 32°46' W 120°31'1916.5
2018-Jun-17 23:51N 33°03' W 120°40'616.5
2018-Jun-17 23:30N 33°08' W 120°42'816.4
2018-Jun-17 23:00N 33°16' W 120°46'816.3
2018-Jun-17 22:31N 33°23' W 120°49'815.6
2018-Jun-17 22:01N 33°31' W 120°53'815.2
2018-Jun-17 21:31N 33°38' W 120°56'815.7
2018-Jun-17 21:01N 33°45' W 120°60'815.3
2018-Jun-17 20:31N 33°52' W 121°03'815.1
2018-Jun-17 20:00N 33°59' W 121°06'815.3
2018-Jun-17 19:30N 34°06' W 121°10'715.0
2018-Jun-17 19:00N 34°13' W 121°13'815.2
2018-Jun-17 18:31N 34°20' W 121°17'815.7
2018-Jun-17 18:01N 34°27' W 121°20'815.7
2018-Jun-17 17:31N 34°35' W 121°24'815.4
2018-Jun-17 17:00N 34°42' W 121°27'815.4
2018-Jun-17 16:30N 34°49' W 121°31'815.3
2018-Jun-17 16:00N 34°56' W 121°34'815.9
2018-Jun-17 15:30N 35°03' W 121°38'815.7
2018-Jun-17 15:01N 35°11' W 121°41'815.4
2018-Jun-17 14:30N 35°18' W 121°45'816.2
2018-Jun-17 13:59N 35°26' W 121°49'4615.8
2018-Jun-17 11:05N 36°08' W 122°10'114.9
2018-Jun-17 11:00N 36°10' W 122°10'5415.3
2018-Jun-17 07:30N 36°59' W 122°36'815.4
2018-Jun-17 07:00N 37°06' W 122°38'815.7
2018-Jun-17 06:30N 37°14' W 122°42'815.3
2018-Jun-17 06:00N 37°21' W 122°44'815.8
2018-Jun-17 05:31N 37°29' W 122°44'815.6
2018-Jun-17 05:01N 37°37' W 122°44'714.9
2018-Jun-17 04:31N 37°44' W 122°41'510.9
2018-Jun-17 04:00N 37°47' W 122°35'714.9
2018-Jun-17 03:30N 37°50' W 122°26'612.9
2018-Jun-17 03:00N 37°56' W 122°27'714.7
2018-Jun-17 02:30N 38°02' W 122°21'714.2
2018-Jun-17 02:00N 38°04' W 122°12'4 0.2
2018-Jun-16 06:06N 38°02' W 122°08'0 0.1
2018-Jun-16 06:00N 38°02' W 122°08'1 1.1
2018-Jun-16 05:30N 38°02' W 122°09'4 9.0
2018-Jun-16 05:00N 38°04' W 122°14'714.7
2018-Jun-16 04:30N 38°02' W 122°23'815.3
2018-Jun-16 04:00N 37°55' W 122°27'611.4
2018-Jun-16 03:30N 37°49' W 122°26'612.7
2018-Jun-16 03:00N 37°47' W 122°33'612.9
2018-Jun-16 02:30N 37°44' W 122°41'5 9.4
2018-Jun-16 02:00N 37°42' W 122°46'5 9.5
2018-Jun-16 01:30N 37°39' W 122°50'5 9.5
2018-Jun-16 01:00N 37°36' W 122°55'5 9.6
2018-Jun-16 00:30N 37°33' W 123°00'5 9.5
2018-Jun-16 00:00N 37°31' W 123°05'612.6
2018-Jun-15 23:30N 37°25' W 123°10'2 4.2
2018-Jun-15 23:00N 37°23' W 123°11'1 1.7
2018-Jun-15 22:29N 37°24' W 123°11'1 2.0
2018-Jun-15 21:58N 37°25' W 123°11'1 1.9
2018-Jun-15 21:25N 37°26' W 123°11'1 1.7
2018-Jun-15 21:00N 37°27' W 123°11'1 1.6
2018-Jun-15 20:30N 37°28' W 123°11'4 7.9
2018-Jun-15 20:00N 37°26' W 123°16'713.6
2018-Jun-15 19:30N 37°23' W 123°23'713.4
2018-Jun-15 19:00N 37°19' W 123°30'814.2
2018-Jun-15 18:25N 37°15' W 123°40'814.6
2018-Jun-15 17:53N 37°11' W 123°48'2113.9
2018-Jun-15 16:20N 37°01' W 124°12'1213.6
2018-Jun-15 15:26N 36°54' W 124°25'813.2
2018-Jun-15 14:50N 36°50' W 124°33'413.5
2018-Jun-15 14:30N 36°48' W 124°38'17113.3
2018-Jun-15 01:37N 35°25' W 127°42'214.7
2018-Jun-15 01:30N 35°24' W 127°44'2614.5
2018-Jun-14 23:44N 35°12' W 128°12'  

Dump ship's entire track history